sensor_id;sensor_type;location;lat;lon;timestamp;P1;durP1;ratioP1;P2;durP2;ratioP2
33152;SDS011;19509;43.862;26.176;2022-10-16T00:00:31;3.67;;;3.37;;
33152;SDS011;19509;43.862;26.176;2022-10-16T00:02:57;4.10;;;3.80;;
33152;SDS011;19509;43.862;26.176;2022-10-16T00:05:23;3.67;;;3.40;;
33152;SDS011;19509;43.862;26.176;2022-10-16T00:07:48;4.00;;;3.90;;
33152;SDS011;19509;43.862;26.176;2022-10-16T00:10:13;3.90;;;3.60;;
33152;SDS011;19509;43.862;26.176;2022-10-16T00:12:39;4.00;;;3.90;;
33152;SDS011;19509;43.862;26.176;2022-10-16T00:15:05;4.00;;;3.83;;
33152;SDS011;19509;43.862;26.176;2022-10-16T00:17:31;3.83;;;3.60;;
33152;SDS011;19509;43.862;26.176;2022-10-16T00:19:56;3.90;;;3.80;;
33152;SDS011;19509;43.862;26.176;2022-10-16T00:22:22;3.70;;;3.50;;
33152;SDS011;19509;43.862;26.176;2022-10-16T00:24:48;3.80;;;3.70;;
33152;SDS011;19509;43.862;26.176;2022-10-16T00:27:13;3.93;;;3.80;;
33152;SDS011;19509;43.862;26.176;2022-10-16T00:29:39;3.70;;;3.60;;
33152;SDS011;19509;43.862;26.176;2022-10-16T00:32:04;3.83;;;3.73;;
33152;SDS011;19509;43.862;26.176;2022-10-16T00:34:30;3.60;;;3.50;;
33152;SDS011;19509;43.862;26.176;2022-10-16T00:36:55;5.73;;;3.67;;
33152;SDS011;19509;43.862;26.176;2022-10-16T00:39:21;3.93;;;3.73;;
33152;SDS011;19509;43.862;26.176;2022-10-16T00:41:47;3.70;;;3.60;;
33152;SDS011;19509;43.862;26.176;2022-10-16T00:47:08;3.43;;;3.30;;
33152;SDS011;19509;43.862;26.176;2022-10-16T00:49:41;3.50;;;3.30;;
33152;SDS011;19509;43.862;26.176;2022-10-16T00:52:06;3.53;;;3.20;;
33152;SDS011;19509;43.862;26.176;2022-10-16T00:54:32;3.27;;;3.13;;
33152;SDS011;19509;43.862;26.176;2022-10-16T00:57:02;3.40;;;3.30;;
33152;SDS011;19509;43.862;26.176;2022-10-16T00:59:32;4.00;;;3.60;;
33152;SDS011;19509;43.862;26.176;2022-10-16T01:02:02;3.50;;;3.30;;
33152;SDS011;19509;43.862;26.176;2022-10-16T01:04:34;3.50;;;3.40;;
33152;SDS011;19509;43.862;26.176;2022-10-16T01:09:50;3.00;;;2.90;;
33152;SDS011;19509;43.862;26.176;2022-10-16T01:18:00;3.57;;;3.47;;
33152;SDS011;19509;43.862;26.176;2022-10-16T01:20:39;3.90;;;3.60;;
33152;SDS011;19509;43.862;26.176;2022-10-16T01:28:36;3.60;;;3.50;;
33152;SDS011;19509;43.862;26.176;2022-10-16T01:31:14;3.40;;;3.30;;
33152;SDS011;19509;43.862;26.176;2022-10-16T01:33:45;3.83;;;3.67;;
33152;SDS011;19509;43.862;26.176;2022-10-16T01:36:21;3.57;;;3.47;;
33152;SDS011;19509;43.862;26.176;2022-10-16T01:38:51;3.93;;;3.83;;
33152;SDS011;19509;43.862;26.176;2022-10-16T01:41:24;3.80;;;3.50;;
33152;SDS011;19509;43.862;26.176;2022-10-16T01:43:55;3.20;;;3.10;;
33152;SDS011;19509;43.862;26.176;2022-10-16T01:46:28;3.10;;;3.00;;
33152;SDS011;19509;43.862;26.176;2022-10-16T01:48:56;3.90;;;3.70;;
33152;SDS011;19509;43.862;26.176;2022-10-16T01:51:24;5.90;;;3.40;;
33152;SDS011;19509;43.862;26.176;2022-10-16T01:53:52;3.43;;;3.30;;
33152;SDS011;19509;43.862;26.176;2022-10-16T01:56:20;3.70;;;3.60;;
33152;SDS011;19509;43.862;26.176;2022-10-16T01:58:58;3.20;;;3.10;;
33152;SDS011;19509;43.862;26.176;2022-10-16T02:01:38;3.57;;;3.30;;
33152;SDS011;19509;43.862;26.176;2022-10-16T02:04:12;3.30;;;3.20;;
33152;SDS011;19509;43.862;26.176;2022-10-16T02:06:40;3.40;;;3.30;;
33152;SDS011;19509;43.862;26.176;2022-10-16T02:09:05;4.13;;;3.60;;
33152;SDS011;19509;43.862;26.176;2022-10-16T02:11:31;3.30;;;3.20;;
33152;SDS011;19509;43.862;26.176;2022-10-16T02:14:06;3.30;;;3.20;;
33152;SDS011;19509;43.862;26.176;2022-10-16T02:16:33;3.53;;;3.43;;
33152;SDS011;19509;43.862;26.176;2022-10-16T02:19:04;3.70;;;3.60;;
33152;SDS011;19509;43.862;26.176;2022-10-16T02:21:44;3.40;;;3.30;;
33152;SDS011;19509;43.862;26.176;2022-10-16T02:27:01;3.77;;;3.67;;
33152;SDS011;19509;43.862;26.176;2022-10-16T02:29:33;3.50;;;3.40;;
33152;SDS011;19509;43.862;26.176;2022-10-16T02:32:09;3.27;;;3.17;;
33152;SDS011;19509;43.862;26.176;2022-10-16T02:34:37;2.97;;;2.87;;
33152;SDS011;19509;43.862;26.176;2022-10-16T02:37:05;3.40;;;3.30;;
33152;SDS011;19509;43.862;26.176;2022-10-16T02:39:31;3.30;;;3.10;;
33152;SDS011;19509;43.862;26.176;2022-10-16T02:41:58;3.50;;;3.30;;
33152;SDS011;19509;43.862;26.176;2022-10-16T02:44:23;3.10;;;3.00;;
33152;SDS011;19509;43.862;26.176;2022-10-16T02:46:49;3.30;;;3.20;;
33152;SDS011;19509;43.862;26.176;2022-10-16T02:49:14;3.53;;;3.40;;
33152;SDS011;19509;43.862;26.176;2022-10-16T02:51:40;3.50;;;3.40;;
33152;SDS011;19509;43.862;26.176;2022-10-16T02:54:05;3.27;;;3.07;;
33152;SDS011;19509;43.862;26.176;2022-10-16T02:56:31;3.00;;;2.90;;
33152;SDS011;19509;43.862;26.176;2022-10-16T02:58:57;3.50;;;3.40;;
33152;SDS011;19509;43.862;26.176;2022-10-16T03:01:23;3.13;;;3.03;;
33152;SDS011;19509;43.862;26.176;2022-10-16T03:03:48;3.83;;;3.60;;
33152;SDS011;19509;43.862;26.176;2022-10-16T03:06:14;3.43;;;3.33;;
33152;SDS011;19509;43.862;26.176;2022-10-16T03:08:40;3.53;;;3.43;;
33152;SDS011;19509;43.862;26.176;2022-10-16T03:11:05;3.23;;;3.13;;
33152;SDS011;19509;43.862;26.176;2022-10-16T03:13:31;3.70;;;3.60;;
33152;SDS011;19509;43.862;26.176;2022-10-16T03:15:56;4.07;;;3.87;;
33152;SDS011;19509;43.862;26.176;2022-10-16T03:18:22;3.63;;;3.53;;
33152;SDS011;19509;43.862;26.176;2022-10-16T03:20:47;3.67;;;3.47;;
33152;SDS011;19509;43.862;26.176;2022-10-16T03:23:13;3.40;;;3.20;;
33152;SDS011;19509;43.862;26.176;2022-10-16T03:25:38;3.37;;;3.17;;
33152;SDS011;19509;43.862;26.176;2022-10-16T03:28:04;3.73;;;3.53;;
33152;SDS011;19509;43.862;26.176;2022-10-16T03:30:29;3.70;;;3.50;;
33152;SDS011;19509;43.862;26.176;2022-10-16T03:32:55;3.50;;;3.40;;
33152;SDS011;19509;43.862;26.176;2022-10-16T03:35:21;3.43;;;3.33;;
33152;SDS011;19509;43.862;26.176;2022-10-16T03:37:47;3.43;;;3.23;;
33152;SDS011;19509;43.862;26.176;2022-10-16T03:40:12;3.50;;;3.40;;
33152;SDS011;19509;43.862;26.176;2022-10-16T03:42:38;3.77;;;3.57;;
33152;SDS011;19509;43.862;26.176;2022-10-16T03:45:04;2.93;;;2.83;;
33152;SDS011;19509;43.862;26.176;2022-10-16T03:47:30;3.40;;;3.30;;
33152;SDS011;19509;43.862;26.176;2022-10-16T03:49:58;3.23;;;3.13;;
33152;SDS011;19509;43.862;26.176;2022-10-16T03:52:23;3.47;;;3.37;;
33152;SDS011;19509;43.862;26.176;2022-10-16T03:54:49;3.17;;;3.07;;
33152;SDS011;19509;43.862;26.176;2022-10-16T03:57:14;3.70;;;3.50;;
33152;SDS011;19509;43.862;26.176;2022-10-16T03:59:40;3.47;;;3.37;;
33152;SDS011;19509;43.862;26.176;2022-10-16T04:02:05;3.20;;;3.10;;
33152;SDS011;19509;43.862;26.176;2022-10-16T04:04:31;2.97;;;2.87;;
33152;SDS011;19509;43.862;26.176;2022-10-16T04:06:56;3.47;;;3.37;;
33152;SDS011;19509;43.862;26.176;2022-10-16T04:09:21;3.30;;;3.20;;
33152;SDS011;19509;43.862;26.176;2022-10-16T04:11:47;3.13;;;3.03;;
33152;SDS011;19509;43.862;26.176;2022-10-16T04:14:12;3.70;;;3.60;;
33152;SDS011;19509;43.862;26.176;2022-10-16T04:16:38;3.53;;;3.43;;
33152;SDS011;19509;43.862;26.176;2022-10-16T04:19:03;3.60;;;3.50;;
33152;SDS011;19509;43.862;26.176;2022-10-16T04:21:29;3.50;;;3.40;;
33152;SDS011;19509;43.862;26.176;2022-10-16T04:23:54;3.20;;;3.10;;
33152;SDS011;19509;43.862;26.176;2022-10-16T04:26:20;3.67;;;3.57;;
33152;SDS011;19509;43.862;26.176;2022-10-16T04:28:45;3.10;;;3.00;;
33152;SDS011;19509;43.862;26.176;2022-10-16T04:31:11;3.30;;;3.10;;
33152;SDS011;19509;43.862;26.176;2022-10-16T04:33:36;3.47;;;3.37;;
33152;SDS011;19509;43.862;26.176;2022-10-16T04:36:02;3.37;;;3.27;;
33152;SDS011;19509;43.862;26.176;2022-10-16T04:38:28;3.20;;;3.10;;
33152;SDS011;19509;43.862;26.176;2022-10-16T04:40:54;3.27;;;3.07;;
33152;SDS011;19509;43.862;26.176;2022-10-16T04:43:20;3.10;;;3.00;;
33152;SDS011;19509;43.862;26.176;2022-10-16T04:45:46;3.90;;;3.67;;
33152;SDS011;19509;43.862;26.176;2022-10-16T04:48:11;3.03;;;2.93;;
33152;SDS011;19509;43.862;26.176;2022-10-16T04:50:37;3.00;;;2.90;;
33152;SDS011;19509;43.862;26.176;2022-10-16T04:53:02;3.20;;;3.10;;
33152;SDS011;19509;43.862;26.176;2022-10-16T04:55:28;3.20;;;3.10;;
33152;SDS011;19509;43.862;26.176;2022-10-16T04:57:54;3.50;;;3.40;;
33152;SDS011;19509;43.862;26.176;2022-10-16T05:00:20;3.83;;;3.40;;
33152;SDS011;19509;43.862;26.176;2022-10-16T05:02:47;3.37;;;3.27;;
33152;SDS011;19509;43.862;26.176;2022-10-16T05:05:12;3.63;;;3.50;;
33152;SDS011;19509;43.862;26.176;2022-10-16T05:07:39;3.40;;;3.20;;
33152;SDS011;19509;43.862;26.176;2022-10-16T05:10:04;5.90;;;3.60;;
33152;SDS011;19509;43.862;26.176;2022-10-16T05:12:30;3.40;;;3.27;;
33152;SDS011;19509;43.862;26.176;2022-10-16T05:14:56;3.43;;;3.33;;
33152;SDS011;19509;43.862;26.176;2022-10-16T05:17:24;3.37;;;3.20;;
33152;SDS011;19509;43.862;26.176;2022-10-16T05:19:51;3.30;;;3.10;;
33152;SDS011;19509;43.862;26.176;2022-10-16T05:22:16;3.17;;;3.07;;
33152;SDS011;19509;43.862;26.176;2022-10-16T05:24:42;3.10;;;2.90;;
33152;SDS011;19509;43.862;26.176;2022-10-16T05:27:07;3.27;;;3.10;;
33152;SDS011;19509;43.862;26.176;2022-10-16T05:29:33;5.00;;;4.70;;
33152;SDS011;19509;43.862;26.176;2022-10-16T05:32:00;6.00;;;5.70;;
33152;SDS011;19509;43.862;26.176;2022-10-16T05:34:25;6.50;;;6.10;;
33152;SDS011;19509;43.862;26.176;2022-10-16T05:36:51;5.60;;;5.40;;
33152;SDS011;19509;43.862;26.176;2022-10-16T05:39:17;4.97;;;4.77;;
33152;SDS011;19509;43.862;26.176;2022-10-16T05:41:42;5.03;;;4.83;;
33152;SDS011;19509;43.862;26.176;2022-10-16T05:44:08;4.50;;;4.30;;
33152;SDS011;19509;43.862;26.176;2022-10-16T05:46:34;4.60;;;4.40;;
33152;SDS011;19509;43.862;26.176;2022-10-16T05:48:59;3.40;;;3.30;;
33152;SDS011;19509;43.862;26.176;2022-10-16T05:51:25;3.50;;;3.40;;
33152;SDS011;19509;43.862;26.176;2022-10-16T05:53:51;3.33;;;3.23;;
33152;SDS011;19509;43.862;26.176;2022-10-16T05:56:17;3.43;;;3.33;;
33152;SDS011;19509;43.862;26.176;2022-10-16T05:58:43;3.50;;;3.40;;
33152;SDS011;19509;43.862;26.176;2022-10-16T06:01:12;4.13;;;3.93;;
33152;SDS011;19509;43.862;26.176;2022-10-16T06:03:40;3.13;;;3.03;;
33152;SDS011;19509;43.862;26.176;2022-10-16T06:06:15;3.10;;;3.00;;
33152;SDS011;19509;43.862;26.176;2022-10-16T06:08:44;2.87;;;2.77;;
33152;SDS011;19509;43.862;26.176;2022-10-16T06:11:14;3.20;;;3.00;;
33152;SDS011;19509;43.862;26.176;2022-10-16T06:13:41;2.70;;;2.60;;
33152;SDS011;19509;43.862;26.176;2022-10-16T06:16:07;3.40;;;3.30;;
33152;SDS011;19509;43.862;26.176;2022-10-16T06:18:34;4.00;;;3.90;;
33152;SDS011;19509;43.862;26.176;2022-10-16T06:21:06;3.70;;;3.60;;
33152;SDS011;19509;43.862;26.176;2022-10-16T06:23:33;5.30;;;4.50;;
33152;SDS011;19509;43.862;26.176;2022-10-16T06:26:12;5.40;;;5.00;;
33152;SDS011;19509;43.862;26.176;2022-10-16T06:28:39;4.33;;;4.23;;
33152;SDS011;19509;43.862;26.176;2022-10-16T06:31:05;4.83;;;4.63;;
33152;SDS011;19509;43.862;26.176;2022-10-16T06:33:33;4.50;;;4.40;;
33152;SDS011;19509;43.862;26.176;2022-10-16T06:36:00;3.87;;;3.77;;
33152;SDS011;19509;43.862;26.176;2022-10-16T06:38:31;4.27;;;4.17;;
33152;SDS011;19509;43.862;26.176;2022-10-16T06:40:57;4.33;;;4.20;;
33152;SDS011;19509;43.862;26.176;2022-10-16T06:43:23;4.30;;;4.20;;
33152;SDS011;19509;43.862;26.176;2022-10-16T06:45:52;3.77;;;3.67;;
33152;SDS011;19509;43.862;26.176;2022-10-16T06:48:18;4.30;;;4.20;;
33152;SDS011;19509;43.862;26.176;2022-10-16T06:50:54;4.30;;;4.10;;
33152;SDS011;19509;43.862;26.176;2022-10-16T06:53:36;4.30;;;4.20;;
33152;SDS011;19509;43.862;26.176;2022-10-16T06:56:11;3.93;;;3.83;;
33152;SDS011;19509;43.862;26.176;2022-10-16T06:58:38;4.20;;;4.10;;
33152;SDS011;19509;43.862;26.176;2022-10-16T07:01:05;4.00;;;3.90;;
33152;SDS011;19509;43.862;26.176;2022-10-16T07:03:31;4.13;;;4.03;;
33152;SDS011;19509;43.862;26.176;2022-10-16T07:05:57;3.77;;;3.67;;
33152;SDS011;19509;43.862;26.176;2022-10-16T07:08:26;4.03;;;3.83;;
33152;SDS011;19509;43.862;26.176;2022-10-16T07:10:59;3.53;;;3.43;;
33152;SDS011;19509;43.862;26.176;2022-10-16T07:13:35;3.87;;;3.67;;
33152;SDS011;19509;43.862;26.176;2022-10-16T07:16:08;3.67;;;3.57;;
33152;SDS011;19509;43.862;26.176;2022-10-16T07:18:38;3.63;;;3.43;;
33152;SDS011;19509;43.862;26.176;2022-10-16T07:21:08;3.50;;;3.40;;
33152;SDS011;19509;43.862;26.176;2022-10-16T07:23:36;3.10;;;3.00;;
33152;SDS011;19509;43.862;26.176;2022-10-16T07:26:02;3.10;;;3.00;;
33152;SDS011;19509;43.862;26.176;2022-10-16T07:28:28;3.37;;;3.17;;
33152;SDS011;19509;43.862;26.176;2022-10-16T07:30:53;3.50;;;3.30;;
33152;SDS011;19509;43.862;26.176;2022-10-16T07:33:19;3.07;;;2.97;;
33152;SDS011;19509;43.862;26.176;2022-10-16T07:35:51;3.03;;;2.93;;
33152;SDS011;19509;43.862;26.176;2022-10-16T07:38:21;3.20;;;3.10;;
33152;SDS011;19509;43.862;26.176;2022-10-16T07:40:47;2.97;;;2.87;;
33152;SDS011;19509;43.862;26.176;2022-10-16T07:43:13;2.67;;;2.57;;
33152;SDS011;19509;43.862;26.176;2022-10-16T07:45:48;2.50;;;2.40;;
33152;SDS011;19509;43.862;26.176;2022-10-16T07:48:15;2.47;;;2.37;;
33152;SDS011;19509;43.862;26.176;2022-10-16T07:50:42;2.23;;;2.13;;
33152;SDS011;19509;43.862;26.176;2022-10-16T07:53:07;2.00;;;2.00;;
33152;SDS011;19509;43.862;26.176;2022-10-16T07:55:33;2.43;;;2.10;;
33152;SDS011;19509;43.862;26.176;2022-10-16T07:57:58;2.20;;;2.10;;
33152;SDS011;19509;43.862;26.176;2022-10-16T08:00:24;2.30;;;2.20;;
33152;SDS011;19509;43.862;26.176;2022-10-16T08:02:49;2.00;;;1.90;;
33152;SDS011;19509;43.862;26.176;2022-10-16T08:05:15;2.03;;;1.93;;
33152;SDS011;19509;43.862;26.176;2022-10-16T08:07:40;1.90;;;1.80;;
33152;SDS011;19509;43.862;26.176;2022-10-16T08:10:06;2.07;;;1.97;;
33152;SDS011;19509;43.862;26.176;2022-10-16T08:12:35;1.97;;;1.90;;
33152;SDS011;19509;43.862;26.176;2022-10-16T08:15:00;2.00;;;1.90;;
33152;SDS011;19509;43.862;26.176;2022-10-16T08:17:26;1.90;;;1.80;;
33152;SDS011;19509;43.862;26.176;2022-10-16T08:19:51;1.90;;;1.80;;
33152;SDS011;19509;43.862;26.176;2022-10-16T08:22:17;2.43;;;2.20;;
33152;SDS011;19509;43.862;26.176;2022-10-16T08:24:42;1.83;;;1.70;;
33152;SDS011;19509;43.862;26.176;2022-10-16T08:27:08;1.80;;;1.70;;
33152;SDS011;19509;43.862;26.176;2022-10-16T08:29:34;2.00;;;1.90;;
33152;SDS011;19509;43.862;26.176;2022-10-16T08:31:59;1.80;;;1.80;;
33152;SDS011;19509;43.862;26.176;2022-10-16T08:34:25;2.10;;;2.00;;
33152;SDS011;19509;43.862;26.176;2022-10-16T08:36:52;5.67;;;2.40;;
33152;SDS011;19509;43.862;26.176;2022-10-16T08:39:18;2.20;;;2.10;;
33152;SDS011;19509;43.862;26.176;2022-10-16T08:47:19;1.93;;;1.87;;
33152;SDS011;19509;43.862;26.176;2022-10-16T08:50:15;2.27;;;2.17;;
33152;SDS011;19509;43.862;26.176;2022-10-16T08:52:52;2.20;;;2.10;;
33152;SDS011;19509;43.862;26.176;2022-10-16T08:58:13;1.67;;;1.67;;
33152;SDS011;19509;43.862;26.176;2022-10-16T09:00:48;2.37;;;2.17;;
33152;SDS011;19509;43.862;26.176;2022-10-16T09:03:23;2.00;;;1.90;;
33152;SDS011;19509;43.862;26.176;2022-10-16T09:06:01;1.80;;;1.80;;
33152;SDS011;19509;43.862;26.176;2022-10-16T09:21:24;2.40;;;2.20;;
33152;SDS011;19509;43.862;26.176;2022-10-16T09:23:54;1.93;;;1.93;;
33152;SDS011;19509;43.862;26.176;2022-10-16T09:26:24;1.83;;;1.83;;
33152;SDS011;19509;43.862;26.176;2022-10-16T09:28:51;2.20;;;2.10;;
33152;SDS011;19509;43.862;26.176;2022-10-16T09:31:19;2.20;;;2.10;;
33152;SDS011;19509;43.862;26.176;2022-10-16T09:33:57;1.80;;;1.73;;
33152;SDS011;19509;43.862;26.176;2022-10-16T09:36:25;1.77;;;1.67;;
33152;SDS011;19509;43.862;26.176;2022-10-16T09:39:04;1.90;;;1.90;;
33152;SDS011;19509;43.862;26.176;2022-10-16T09:41:33;1.80;;;1.80;;
33152;SDS011;19509;43.862;26.176;2022-10-16T09:44:01;2.00;;;1.90;;
33152;SDS011;19509;43.862;26.176;2022-10-16T09:46:30;1.97;;;1.87;;
33152;SDS011;19509;43.862;26.176;2022-10-16T09:49:00;2.10;;;2.07;;
33152;SDS011;19509;43.862;26.176;2022-10-16T09:51:43;2.00;;;1.90;;
33152;SDS011;19509;43.862;26.176;2022-10-16T09:54:14;2.13;;;2.03;;
33152;SDS011;19509;43.862;26.176;2022-10-16T09:56:41;3.53;;;2.13;;
33152;SDS011;19509;43.862;26.176;2022-10-16T09:59:17;2.00;;;1.90;;
33152;SDS011;19509;43.862;26.176;2022-10-16T10:01:45;2.83;;;2.73;;
33152;SDS011;19509;43.862;26.176;2022-10-16T10:04:12;3.00;;;2.50;;
33152;SDS011;19509;43.862;26.176;2022-10-16T10:06:45;2.40;;;2.30;;
33152;SDS011;19509;43.862;26.176;2022-10-16T10:11:44;2.63;;;2.53;;
33152;SDS011;19509;43.862;26.176;2022-10-16T10:14:26;2.40;;;2.20;;
33152;SDS011;19509;43.862;26.176;2022-10-16T10:19:29;2.33;;;2.23;;
33152;SDS011;19509;43.862;26.176;2022-10-16T10:21:55;2.40;;;2.30;;
33152;SDS011;19509;43.862;26.176;2022-10-16T10:24:20;2.20;;;2.10;;
33152;SDS011;19509;43.862;26.176;2022-10-16T10:27:06;2.30;;;2.20;;
33152;SDS011;19509;43.862;26.176;2022-10-16T10:29:48;2.50;;;2.40;;
33152;SDS011;19509;43.862;26.176;2022-10-16T10:35:46;2.40;;;2.30;;
33152;SDS011;19509;43.862;26.176;2022-10-16T10:38:38;2.27;;;2.17;;
33152;SDS011;19509;43.862;26.176;2022-10-16T10:46:51;2.00;;;1.90;;
33152;SDS011;19509;43.862;26.176;2022-10-16T10:58:06;2.27;;;2.17;;
33152;SDS011;19509;43.862;26.176;2022-10-16T11:00:47;2.20;;;2.10;;
33152;SDS011;19509;43.862;26.176;2022-10-16T11:06:06;2.40;;;2.30;;
33152;SDS011;19509;43.862;26.176;2022-10-16T11:08:36;2.40;;;2.30;;
33152;SDS011;19509;43.862;26.176;2022-10-16T11:11:18;2.03;;;2.00;;
33152;SDS011;19509;43.862;26.176;2022-10-16T11:13:57;1.93;;;1.83;;
33152;SDS011;19509;43.862;26.176;2022-10-16T11:16:28;2.60;;;1.97;;
33152;SDS011;19509;43.862;26.176;2022-10-16T11:19:11;1.97;;;1.87;;
33152;SDS011;19509;43.862;26.176;2022-10-16T11:21:46;2.20;;;2.10;;
33152;SDS011;19509;43.862;26.176;2022-10-16T11:30:13;2.20;;;2.10;;
33152;SDS011;19509;43.862;26.176;2022-10-16T11:35:49;2.10;;;1.70;;
33152;SDS011;19509;43.862;26.176;2022-10-16T11:49:39;2.07;;;1.97;;
33152;SDS011;19509;43.862;26.176;2022-10-16T11:53:09;1.70;;;1.60;;
33152;SDS011;19509;43.862;26.176;2022-10-16T11:55:20;2.40;;;1.77;;
33152;SDS011;19509;43.862;26.176;2022-10-16T11:58:01;2.10;;;2.00;;
33152;SDS011;19509;43.862;26.176;2022-10-16T12:01:15;3.50;;;1.80;;
33152;SDS011;19509;43.862;26.176;2022-10-16T12:08:49;2.00;;;1.90;;
33152;SDS011;19509;43.862;26.176;2022-10-16T12:14:59;1.80;;;1.70;;
33152;SDS011;19509;43.862;26.176;2022-10-16T12:16:56;4.20;;;2.03;;
33152;SDS011;19509;43.862;26.176;2022-10-16T12:19:25;2.10;;;2.00;;
33152;SDS011;19509;43.862;26.176;2022-10-16T12:21:53;2.10;;;2.00;;
33152;SDS011;19509;43.862;26.176;2022-10-16T12:24:32;2.03;;;2.03;;
33152;SDS011;19509;43.862;26.176;2022-10-16T12:29:56;3.67;;;1.80;;
33152;SDS011;19509;43.862;26.176;2022-10-16T12:34:58;2.17;;;2.07;;
33152;SDS011;19509;43.862;26.176;2022-10-16T12:37:25;2.03;;;1.60;;
33152;SDS011;19509;43.862;26.176;2022-10-16T12:39:54;1.90;;;1.80;;
33152;SDS011;19509;43.862;26.176;2022-10-16T12:44:53;2.73;;;1.80;;
33152;SDS011;19509;43.862;26.176;2022-10-16T12:47:46;1.87;;;1.77;;
33152;SDS011;19509;43.862;26.176;2022-10-16T12:50:29;1.93;;;1.83;;
33152;SDS011;19509;43.862;26.176;2022-10-16T12:52:58;1.80;;;1.70;;
33152;SDS011;19509;43.862;26.176;2022-10-16T12:55:25;1.80;;;1.70;;
33152;SDS011;19509;43.862;26.176;2022-10-16T13:00:47;1.80;;;1.70;;
33152;SDS011;19509;43.862;26.176;2022-10-16T13:03:33;2.37;;;1.90;;
33152;SDS011;19509;43.862;26.176;2022-10-16T13:06:17;2.73;;;2.10;;
33152;SDS011;19509;43.862;26.176;2022-10-16T13:09:02;4.43;;;1.53;;
33152;SDS011;19509;43.862;26.176;2022-10-16T13:17:25;1.63;;;1.63;;
33152;SDS011;19509;43.862;26.176;2022-10-16T13:20:21;1.93;;;1.83;;
33152;SDS011;19509;43.862;26.176;2022-10-16T13:25:49;1.77;;;1.77;;
33152;SDS011;19509;43.862;26.176;2022-10-16T13:28:29;1.20;;;1.20;;
33152;SDS011;19509;43.862;26.176;2022-10-16T13:30:58;1.33;;;0.90;;
33152;SDS011;19509;43.862;26.176;2022-10-16T13:33:41;1.77;;;1.00;;
33152;SDS011;19509;43.862;26.176;2022-10-16T13:36:20;1.10;;;1.10;;
33152;SDS011;19509;43.862;26.176;2022-10-16T13:38:47;1.00;;;1.00;;
33152;SDS011;19509;43.862;26.176;2022-10-16T13:41:14;1.17;;;0.93;;
33152;SDS011;19509;43.862;26.176;2022-10-16T13:43:43;0.83;;;0.83;;
33152;SDS011;19509;43.862;26.176;2022-10-16T13:46:12;0.90;;;0.90;;
33152;SDS011;19509;43.862;26.176;2022-10-16T13:48:42;0.80;;;0.80;;
33152;SDS011;19509;43.862;26.176;2022-10-16T13:53:40;1.13;;;0.90;;
33152;SDS011;19509;43.862;26.176;2022-10-16T13:56:09;0.90;;;0.90;;
33152;SDS011;19509;43.862;26.176;2022-10-16T13:58:36;1.10;;;1.10;;
33152;SDS011;19509;43.862;26.176;2022-10-16T14:01:05;0.93;;;0.93;;
33152;SDS011;19509;43.862;26.176;2022-10-16T14:03:40;1.00;;;1.00;;
33152;SDS011;19509;43.862;26.176;2022-10-16T14:06:11;1.17;;;0.83;;
33152;SDS011;19509;43.862;26.176;2022-10-16T14:08:42;4.43;;;1.60;;
33152;SDS011;19509;43.862;26.176;2022-10-16T14:11:11;1.00;;;1.00;;
33152;SDS011;19509;43.862;26.176;2022-10-16T14:13:38;1.00;;;1.00;;
33152;SDS011;19509;43.862;26.176;2022-10-16T14:16:15;6.40;;;2.30;;
33152;SDS011;19509;43.862;26.176;2022-10-16T14:18:45;0.90;;;0.90;;
33152;SDS011;19509;43.862;26.176;2022-10-16T14:21:16;0.90;;;0.90;;
33152;SDS011;19509;43.862;26.176;2022-10-16T14:23:42;0.87;;;0.87;;
33152;SDS011;19509;43.862;26.176;2022-10-16T14:28:33;0.93;;;0.93;;
33152;SDS011;19509;43.862;26.176;2022-10-16T14:31:00;0.80;;;0.77;;
33152;SDS011;19509;43.862;26.176;2022-10-16T14:38:38;0.90;;;0.90;;
33152;SDS011;19509;43.862;26.176;2022-10-16T14:41:06;1.00;;;1.00;;
33152;SDS011;19509;43.862;26.176;2022-10-16T14:43:36;0.80;;;0.80;;
33152;SDS011;19509;43.862;26.176;2022-10-16T14:46:03;1.10;;;1.00;;
33152;SDS011;19509;43.862;26.176;2022-10-16T14:48:33;0.93;;;0.93;;
33152;SDS011;19509;43.862;26.176;2022-10-16T14:50:59;1.00;;;1.00;;
33152;SDS011;19509;43.862;26.176;2022-10-16T14:53:24;0.90;;;0.90;;
33152;SDS011;19509;43.862;26.176;2022-10-16T14:55:50;0.80;;;0.80;;
33152;SDS011;19509;43.862;26.176;2022-10-16T14:58:16;1.00;;;1.00;;
33152;SDS011;19509;43.862;26.176;2022-10-16T15:00:44;1.00;;;1.00;;
33152;SDS011;19509;43.862;26.176;2022-10-16T15:03:10;0.90;;;0.90;;
33152;SDS011;19509;43.862;26.176;2022-10-16T15:05:36;5.43;;;1.90;;
33152;SDS011;19509;43.862;26.176;2022-10-16T15:08:02;7.43;;;1.40;;
33152;SDS011;19509;43.862;26.176;2022-10-16T15:10:29;1.30;;;1.20;;
33152;SDS011;19509;43.862;26.176;2022-10-16T15:12:57;1.00;;;1.00;;
33152;SDS011;19509;43.862;26.176;2022-10-16T15:17:55;2.20;;;1.13;;
33152;SDS011;19509;43.862;26.176;2022-10-16T15:20:25;1.10;;;1.10;;
33152;SDS011;19509;43.862;26.176;2022-10-16T15:22:59;2.10;;;1.10;;
33152;SDS011;19509;43.862;26.176;2022-10-16T15:25:46;15.33;;;3.20;;
33152;SDS011;19509;43.862;26.176;2022-10-16T15:28:14;1.40;;;1.30;;
33152;SDS011;19509;43.862;26.176;2022-10-16T15:30:41;2.20;;;1.60;;
33152;SDS011;19509;43.862;26.176;2022-10-16T15:33:20;4.70;;;1.80;;
33152;SDS011;19509;43.862;26.176;2022-10-16T15:35:48;2.63;;;1.50;;
33152;SDS011;19509;43.862;26.176;2022-10-16T15:38:15;3.27;;;1.27;;
33152;SDS011;19509;43.862;26.176;2022-10-16T15:40:42;1.50;;;1.10;;
33152;SDS011;19509;43.862;26.176;2022-10-16T15:43:07;1.80;;;1.40;;
33152;SDS011;19509;43.862;26.176;2022-10-16T15:45:33;1.20;;;1.10;;
33152;SDS011;19509;43.862;26.176;2022-10-16T15:47:59;2.73;;;1.23;;
33152;SDS011;19509;43.862;26.176;2022-10-16T15:50:25;2.93;;;1.30;;
33152;SDS011;19509;43.862;26.176;2022-10-16T15:52:51;1.20;;;1.20;;
33152;SDS011;19509;43.862;26.176;2022-10-16T15:55:16;1.93;;;1.20;;
33152;SDS011;19509;43.862;26.176;2022-10-16T15:57:43;1.50;;;1.10;;
33152;SDS011;19509;43.862;26.176;2022-10-16T16:00:11;1.47;;;1.03;;
33152;SDS011;19509;43.862;26.176;2022-10-16T16:02:38;1.20;;;1.20;;
33152;SDS011;19509;43.862;26.176;2022-10-16T16:05:05;1.10;;;1.10;;
33152;SDS011;19509;43.862;26.176;2022-10-16T16:07:36;1.30;;;1.30;;
33152;SDS011;19509;43.862;26.176;2022-10-16T16:10:04;1.20;;;1.20;;
33152;SDS011;19509;43.862;26.176;2022-10-16T16:12:31;1.30;;;1.30;;
33152;SDS011;19509;43.862;26.176;2022-10-16T16:14:57;1.20;;;1.10;;
33152;SDS011;19509;43.862;26.176;2022-10-16T16:17:22;1.30;;;1.20;;
33152;SDS011;19509;43.862;26.176;2022-10-16T16:19:52;1.60;;;1.50;;
33152;SDS011;19509;43.862;26.176;2022-10-16T16:22:24;1.23;;;1.23;;
33152;SDS011;19509;43.862;26.176;2022-10-16T16:24:49;1.30;;;1.30;;
33152;SDS011;19509;43.862;26.176;2022-10-16T16:27:15;1.30;;;1.30;;
33152;SDS011;19509;43.862;26.176;2022-10-16T16:29:40;1.53;;;1.53;;
33152;SDS011;19509;43.862;26.176;2022-10-16T16:32:06;1.50;;;1.50;;
33152;SDS011;19509;43.862;26.176;2022-10-16T16:34:31;5.57;;;2.03;;
33152;SDS011;19509;43.862;26.176;2022-10-16T16:36:57;1.97;;;1.60;;
33152;SDS011;19509;43.862;26.176;2022-10-16T16:39:22;1.77;;;1.67;;
33152;SDS011;19509;43.862;26.176;2022-10-16T16:41:48;1.60;;;1.50;;
33152;SDS011;19509;43.862;26.176;2022-10-16T16:44:14;2.63;;;1.70;;
33152;SDS011;19509;43.862;26.176;2022-10-16T16:46:40;1.63;;;1.50;;
33152;SDS011;19509;43.862;26.176;2022-10-16T16:49:09;1.53;;;1.43;;
33152;SDS011;19509;43.862;26.176;2022-10-16T16:51:35;2.10;;;2.00;;